createdAt,value
2023-02-24T00:01:26.244Z,382
2023-02-24T00:03:32.136Z,381
2023-02-24T00:05:37.501Z,381
2023-02-24T00:07:42.761Z,377
2023-02-24T00:09:48.085Z,379
2023-02-24T00:11:53.427Z,375
2023-02-24T00:13:58.692Z,381
2023-02-24T00:16:04.255Z,377
2023-02-24T00:18:09.989Z,379
2023-02-24T00:20:15.365Z,374
2023-02-24T00:22:20.867Z,381
2023-02-24T00:24:26.332Z,381
2023-02-24T00:26:34.762Z,382
2023-02-24T00:28:40.048Z,382
2023-02-24T00:30:45.811Z,375
2023-02-24T00:32:51.797Z,379
2023-02-24T00:34:57.093Z,378
2023-02-24T00:37:02.529Z,379
2023-02-24T00:39:08.000Z,382
2023-02-24T00:41:13.386Z,382
2023-02-24T00:43:18.602Z,382
2023-02-24T00:45:24.001Z,382
2023-02-24T00:47:29.789Z,378
2023-02-24T00:49:35.324Z,374
2023-02-24T00:51:40.781Z,375
2023-02-24T00:53:46.278Z,381
2023-02-24T00:55:51.534Z,376
2023-02-24T00:57:56.893Z,375
2023-02-24T01:00:02.184Z,379
2023-02-24T01:02:08.301Z,376
2023-02-24T01:04:14.064Z,377
2023-02-24T01:06:19.528Z,376
2023-02-24T01:08:25.358Z,374
2023-02-24T01:10:30.801Z,378
2023-02-24T01:12:36.153Z,378
2023-02-24T01:14:41.686Z,374
2023-02-24T01:16:47.383Z,367
2023-02-24T01:18:52.976Z,379
2023-02-24T01:20:58.359Z,378
2023-02-24T01:23:03.962Z,374
2023-02-24T01:25:12.223Z,374
2023-02-24T01:27:17.781Z,375
2023-02-24T01:29:23.635Z,373
2023-02-24T01:31:29.796Z,373
2023-02-24T01:33:35.311Z,375
2023-02-24T01:35:40.768Z,375
2023-02-24T01:37:46.061Z,377
2023-02-24T01:39:51.372Z,369
2023-02-24T01:41:56.561Z,377
2023-02-24T01:44:02.019Z,375
2023-02-24T01:46:10.143Z,374
2023-02-24T01:48:15.769Z,377
2023-02-24T01:50:21.257Z,378
2023-02-24T01:52:29.401Z,378
2023-02-24T01:54:35.286Z,381
2023-02-24T01:56:40.752Z,380
2023-02-24T01:58:46.360Z,379
2023-02-24T02:00:51.647Z,376
2023-02-24T02:02:57.475Z,379
2023-02-24T02:05:03.502Z,376
2023-02-24T02:07:08.777Z,375
2023-02-24T02:09:14.603Z,378
2023-02-24T02:11:21.057Z,379
2023-02-24T02:13:27.697Z,381
2023-02-24T02:15:33.416Z,378
2023-02-24T02:17:38.620Z,382
2023-02-24T02:19:44.093Z,381
2023-02-24T02:21:49.471Z,377
2023-02-24T02:23:54.815Z,384
2023-02-24T02:26:00.263Z,379
2023-02-24T02:28:05.532Z,377
2023-02-24T02:30:10.877Z,377
2023-02-24T02:32:17.229Z,378
2023-02-24T02:34:22.596Z,375
2023-02-24T02:36:27.839Z,381
2023-02-24T02:38:32.881Z,376
2023-02-24T02:40:37.996Z,374
2023-02-24T02:42:43.316Z,376
2023-02-24T02:44:48.705Z,375
2023-02-24T02:46:53.834Z,378
2023-02-24T02:49:00.809Z,373
2023-02-24T02:51:06.116Z,374
2023-02-24T02:53:11.283Z,382
2023-02-24T02:55:16.523Z,377
2023-02-24T02:57:21.721Z,379
2023-02-24T02:59:26.951Z,382
2023-02-24T03:01:32.452Z,377
2023-02-24T03:03:38.072Z,378
2023-02-24T03:05:43.392Z,377
2023-02-24T03:07:48.988Z,376
2023-02-24T03:10:11.688Z,374
2023-02-24T03:12:17.045Z,381
2023-02-24T03:14:22.311Z,377
2023-02-24T03:16:28.101Z,380
2023-02-24T03:18:33.652Z,382
2023-02-24T03:20:38.991Z,382
2023-02-24T03:22:44.344Z,380
2023-02-24T03:24:49.775Z,379
2023-02-24T03:26:55.164Z,377
2023-02-24T03:29:02.177Z,378
2023-02-24T03:31:07.736Z,377
2023-02-24T03:33:13.473Z,379
2023-02-24T03:35:18.948Z,382
2023-02-24T03:37:24.275Z,382
2023-02-24T03:39:29.539Z,382
2023-02-24T03:41:35.040Z,379
2023-02-24T03:43:43.671Z,382
2023-02-24T03:45:49.250Z,379
2023-02-24T03:47:55.369Z,377
2023-02-24T03:50:00.605Z,382
2023-02-24T03:52:05.478Z,378
2023-02-24T03:54:10.622Z,382
2023-02-24T03:56:15.697Z,379
2023-02-24T03:58:21.090Z,378
2023-02-24T04:00:26.214Z,384
2023-02-24T04:02:31.807Z,384
2023-02-24T04:04:37.500Z,382
2023-02-24T04:06:43.516Z,376
2023-02-24T04:08:48.757Z,376
2023-02-24T04:10:54.473Z,374
2023-02-24T04:13:00.180Z,375
2023-02-24T04:15:05.343Z,380
2023-02-24T04:17:10.824Z,382
2023-02-24T04:19:17.088Z,382
2023-02-24T04:21:23.437Z,376
2023-02-24T04:23:28.536Z,381
2023-02-24T04:25:34.120Z,378
2023-02-24T04:27:39.681Z,381
2023-02-24T04:29:45.062Z,376
2023-02-24T04:31:51.268Z,384
2023-02-24T04:33:57.504Z,377
2023-02-24T04:36:02.726Z,378
2023-02-24T04:38:07.755Z,382
2023-02-24T04:40:13.237Z,382
2023-02-24T04:42:19.989Z,382
2023-02-24T04:44:25.692Z,379
2023-02-24T04:46:31.785Z,381
2023-02-24T04:48:37.439Z,376
2023-02-24T04:50:42.601Z,377
2023-02-24T04:52:47.964Z,377
2023-02-24T04:54:53.369Z,378
2023-02-24T04:57:01.468Z,377
2023-02-24T04:59:06.755Z,377
2023-02-24T05:01:12.267Z,379
2023-02-24T05:03:17.811Z,377
2023-02-24T05:05:22.999Z,378
2023-02-24T05:07:28.658Z,379
2023-02-24T05:09:33.938Z,381
2023-02-24T05:11:39.267Z,379
2023-02-24T05:13:44.373Z,377
2023-02-24T05:15:49.982Z,379
2023-02-24T05:17:55.544Z,375
2023-02-24T05:20:00.898Z,377
2023-02-24T05:22:06.252Z,378
2023-02-24T05:24:11.808Z,378
2023-02-24T05:26:17.350Z,376
2023-02-24T05:28:22.662Z,375
2023-02-24T05:30:28.046Z,375
2023-02-24T05:32:34.117Z,382
2023-02-24T05:34:39.621Z,378
2023-02-24T05:36:44.864Z,377
2023-02-24T05:38:50.700Z,379
2023-02-24T05:40:55.978Z,378
2023-02-24T05:43:01.442Z,376
2023-02-24T05:45:06.977Z,379
2023-02-24T05:47:12.288Z,376
2023-02-24T05:49:17.784Z,377
2023-02-24T05:51:24.230Z,379
2023-02-24T05:53:29.682Z,382
2023-02-24T05:55:35.091Z,385
2023-02-24T05:57:40.340Z,384
2023-02-24T05:59:45.921Z,378
2023-02-24T06:01:51.577Z,381
2023-02-24T06:03:58.149Z,384
2023-02-24T06:06:03.875Z,381
2023-02-24T06:08:09.302Z,382
2023-02-24T06:10:14.757Z,381
2023-02-24T06:12:20.170Z,378
2023-02-24T06:14:25.764Z,379
2023-02-24T06:16:31.609Z,379
2023-02-24T06:18:37.167Z,382
2023-02-24T06:20:43.052Z,384
2023-02-24T06:22:48.663Z,384
2023-02-24T06:24:54.182Z,384
2023-02-24T06:26:59.521Z,384
2023-02-24T06:29:04.916Z,384
2023-02-24T06:31:10.473Z,384
2023-02-24T06:33:15.844Z,384
2023-02-24T06:35:21.528Z,381
2023-02-24T06:37:27.879Z,384
2023-02-24T06:39:35.526Z,381
2023-02-24T06:41:42.834Z,384
2023-02-24T06:43:49.125Z,384
2023-02-24T06:45:55.549Z,382
2023-02-24T06:48:01.453Z,385
2023-02-24T06:50:07.547Z,385
2023-02-24T06:52:13.241Z,384
2023-02-24T06:54:18.819Z,386
2023-02-24T06:56:24.685Z,382
2023-02-24T06:58:32.035Z,381
2023-02-24T07:00:38.805Z,381
2023-02-24T07:02:45.614Z,386
2023-02-24T07:04:51.806Z,382
2023-02-24T07:06:57.887Z,386
2023-02-24T07:09:04.451Z,384
2023-02-24T07:11:10.984Z,384
2023-02-24T07:13:16.853Z,384
2023-02-24T07:15:22.359Z,386
2023-02-24T07:17:27.826Z,386
2023-02-24T07:19:33.446Z,386
2023-02-24T07:21:39.361Z,386
2023-02-24T07:23:44.857Z,386
2023-02-24T07:25:50.472Z,385
2023-02-24T07:27:57.576Z,386
2023-02-24T07:30:03.072Z,384
2023-02-24T07:32:09.419Z,386
2023-02-24T07:34:15.853Z,386
2023-02-24T07:36:21.913Z,386
2023-02-24T07:38:27.240Z,386
2023-02-24T07:40:32.358Z,386
2023-02-24T07:42:38.201Z,386
2023-02-24T07:44:44.715Z,386
2023-02-24T07:46:50.647Z,386
2023-02-24T07:48:56.286Z,387
2023-02-24T07:51:02.511Z,386
2023-02-24T07:53:08.750Z,386
2023-02-24T07:55:14.670Z,386
2023-02-24T07:57:20.302Z,386
2023-02-24T07:59:26.709Z,386
2023-02-24T08:01:32.940Z,386
2023-02-24T08:03:39.385Z,386
2023-02-24T08:05:45.268Z,387
2023-02-24T08:07:51.313Z,386
2023-02-24T08:09:57.630Z,386
2023-02-24T08:12:04.176Z,386
2023-02-24T08:14:10.606Z,386
2023-02-24T08:16:16.816Z,386
2023-02-24T08:18:23.005Z,386
2023-02-24T08:20:29.297Z,386
2023-02-24T08:22:35.534Z,384
2023-02-24T08:24:42.125Z,386
2023-02-24T08:26:48.334Z,384
2023-02-24T08:28:54.958Z,384
2023-02-24T08:31:03.241Z,380
2023-02-24T08:33:10.053Z,384
2023-02-24T08:35:16.115Z,384
2023-02-24T08:37:22.505Z,386
2023-02-24T08:39:28.497Z,384
2023-02-24T08:41:34.580Z,384
2023-02-24T08:43:41.290Z,384
2023-02-24T08:45:47.677Z,385
2023-02-24T08:47:54.006Z,384
2023-02-24T08:49:59.923Z,379
2023-02-24T08:52:05.809Z,381
2023-02-24T08:54:13.237Z,381
2023-02-24T08:56:19.560Z,379
2023-02-24T08:58:26.247Z,384
2023-02-24T09:00:32.604Z,380
2023-02-24T09:02:39.203Z,381
2023-02-24T09:04:45.339Z,382
2023-02-24T09:06:55.748Z,381
2023-02-24T09:09:16.089Z,381
2023-02-24T09:11:24.176Z,381
2023-02-24T09:13:29.947Z,384
2023-02-24T09:15:35.849Z,381
2023-02-24T09:17:42.262Z,384
2023-02-24T09:19:48.609Z,382
2023-02-24T09:21:54.667Z,384
2023-02-24T09:24:00.569Z,382
2023-02-24T09:26:06.798Z,382
2023-02-24T09:28:13.163Z,379
2023-02-24T09:30:19.786Z,381
2023-02-24T09:32:26.718Z,380
2023-02-24T09:34:33.687Z,380
2023-02-24T09:36:41.682Z,384
2023-02-24T09:38:48.316Z,382
2023-02-24T09:40:54.118Z,382
2023-02-24T09:43:00.033Z,382
2023-02-24T09:45:06.164Z,381
2023-02-24T09:47:11.975Z,382
2023-02-24T09:49:17.447Z,381
2023-02-24T09:51:24.327Z,378
2023-02-24T09:53:29.820Z,382
2023-02-24T09:55:35.769Z,382
2023-02-24T09:57:41.312Z,382
2023-02-24T09:59:50.184Z,382
2023-02-24T10:01:56.040Z,382
2023-02-24T10:04:20.537Z,384
2023-02-24T10:06:26.925Z,382
2023-02-24T10:08:32.460Z,382
2023-02-24T10:10:37.712Z,382
2023-02-24T10:12:43.518Z,382
2023-02-24T10:15:00.359Z,382
2023-02-24T10:17:06.257Z,382
2023-02-24T10:19:11.780Z,382
2023-02-24T10:21:18.263Z,384
2023-02-24T10:23:24.780Z,384
2023-02-24T10:25:30.314Z,381
2023-02-24T10:27:36.202Z,384
2023-02-24T10:29:42.133Z,382
2023-02-24T10:31:49.441Z,380
2023-02-24T10:33:54.827Z,382
2023-02-24T10:36:00.450Z,382
2023-02-24T10:38:05.862Z,382
2023-02-24T10:40:11.970Z,377
2023-02-24T10:42:17.794Z,382
2023-02-24T10:44:24.000Z,381
2023-02-24T10:46:45.160Z,375
2023-02-24T10:48:51.994Z,376
2023-02-24T10:50:59.399Z,382
2023-02-24T10:53:05.997Z,378
2023-02-24T10:55:12.230Z,379
2023-02-24T10:57:18.818Z,375
2023-02-24T10:59:24.746Z,382
2023-02-24T11:01:31.732Z,378
2023-02-24T11:03:37.941Z,379
2023-02-24T11:05:44.297Z,378
2023-02-24T11:07:50.656Z,377
2023-02-24T11:09:57.136Z,378
2023-02-24T11:12:03.787Z,382
2023-02-24T11:14:10.345Z,382
2023-02-24T11:16:18.208Z,382
2023-02-24T11:18:24.744Z,379
2023-02-24T11:20:51.295Z,381
2023-02-24T11:22:57.915Z,381
2023-02-24T11:25:04.895Z,379
2023-02-24T11:27:14.197Z,381
2023-02-24T11:29:20.893Z,378
2023-02-24T11:31:28.966Z,377
2023-02-24T11:33:35.453Z,375
2023-02-24T11:35:41.591Z,379
2023-02-24T11:37:48.107Z,376
2023-02-24T11:39:55.368Z,377
2023-02-24T11:42:01.674Z,381
2023-02-24T11:44:08.434Z,377
2023-02-24T11:46:18.862Z,377
2023-02-24T11:48:25.034Z,376
2023-02-24T11:50:31.513Z,374
2023-02-24T11:52:38.801Z,374
2023-02-24T11:54:46.348Z,375
2023-02-24T11:56:52.131Z,372
2023-02-24T11:58:57.899Z,373
2023-02-24T12:01:03.787Z,375
2023-02-24T12:03:09.966Z,376
2023-02-24T12:05:16.369Z,375
2023-02-24T12:07:23.034Z,375
2023-02-24T12:09:30.571Z,375
2023-02-24T12:11:36.766Z,376
2023-02-24T12:13:42.864Z,375
2023-02-24T12:15:49.905Z,377
2023-02-24T12:17:56.196Z,370
2023-02-24T12:20:02.491Z,368
2023-02-24T12:22:08.835Z,376
2023-02-24T12:24:15.585Z,374
2023-02-24T12:26:21.818Z,374
2023-02-24T12:28:28.001Z,376
2023-02-24T12:30:34.944Z,377
2023-02-24T12:32:44.912Z,375
2023-02-24T12:34:52.037Z,376
2023-02-24T12:36:58.451Z,374
2023-02-24T12:39:04.163Z,374
2023-02-24T12:41:10.853Z,374
2023-02-24T12:43:17.623Z,369
2023-02-24T12:45:23.706Z,373
2023-02-24T12:47:29.819Z,374
2023-02-24T12:49:35.948Z,373
2023-02-24T12:51:42.628Z,374
2023-02-24T12:53:49.150Z,372
2023-02-24T12:55:55.453Z,369
2023-02-24T12:58:02.703Z,369
2023-02-24T13:00:09.074Z,372
2023-02-24T13:02:16.066Z,369
2023-02-24T13:04:22.509Z,368
2023-02-24T13:06:29.095Z,368
2023-02-24T13:08:35.550Z,369
2023-02-24T13:10:41.781Z,368
2023-02-24T13:12:48.507Z,368
2023-02-24T13:14:55.085Z,376
2023-02-24T13:17:01.161Z,374
2023-02-24T13:19:07.563Z,374
2023-02-24T13:21:15.009Z,369
2023-02-24T13:23:27.340Z,374
2023-02-24T13:25:33.911Z,375
2023-02-24T13:27:40.023Z,373
2023-02-24T13:29:46.624Z,373
2023-02-24T13:31:53.603Z,375
2023-02-24T13:34:00.066Z,374
2023-02-24T13:36:06.356Z,373
2023-02-24T13:38:13.040Z,374
2023-02-24T13:40:19.591Z,375
2023-02-24T13:42:26.170Z,378
2023-02-24T13:44:32.921Z,378
2023-02-24T13:46:39.596Z,376
2023-02-24T13:48:45.924Z,374
2023-02-24T13:50:52.539Z,376
2023-02-24T13:53:02.200Z,373
2023-02-24T13:55:08.588Z,374
2023-02-24T13:57:17.374Z,374
2023-02-24T13:59:24.287Z,373
2023-02-24T14:01:30.681Z,374
2023-02-24T14:03:38.104Z,374
2023-02-24T14:05:44.555Z,374
2023-02-24T14:07:50.997Z,367
2023-02-24T14:09:57.296Z,369
2023-02-24T14:12:04.734Z,368
2023-02-24T14:14:12.000Z,378
2023-02-24T14:16:18.873Z,367
2023-02-24T14:18:26.246Z,373
2023-02-24T14:20:32.365Z,368
2023-02-24T14:22:38.948Z,378
2023-02-24T14:24:45.564Z,367
2023-02-24T14:26:51.983Z,369
2023-02-24T14:28:59.634Z,367
2023-02-24T14:31:06.558Z,368
2023-02-24T14:33:15.185Z,369
2023-02-24T14:35:22.264Z,368
2023-02-24T14:37:28.547Z,369
2023-02-24T14:39:34.757Z,367
2023-02-24T14:41:41.510Z,365
2023-02-24T14:43:48.494Z,367
2023-02-24T14:45:55.684Z,366
2023-02-24T14:48:01.677Z,363
2023-02-24T14:50:08.474Z,365
2023-02-24T14:52:18.388Z,367
2023-02-24T14:54:24.884Z,366
2023-02-24T14:56:32.179Z,368
2023-02-24T14:58:39.271Z,368
2023-02-24T15:00:46.730Z,367
2023-02-24T15:02:53.780Z,365
2023-02-24T15:05:00.762Z,368
2023-02-24T15:07:10.034Z,368
2023-02-24T15:09:16.828Z,367
2023-02-24T15:11:23.395Z,366
2023-02-24T15:13:30.618Z,368
2023-02-24T15:15:37.389Z,368
2023-02-24T15:17:44.138Z,368
2023-02-24T15:19:51.047Z,369
2023-02-24T15:21:58.029Z,369
2023-02-24T15:24:04.815Z,366
2023-02-24T15:26:11.690Z,373
2023-02-24T15:28:19.539Z,367
2023-02-24T15:30:28.556Z,370
2023-02-24T15:32:38.305Z,372
2023-02-24T15:34:45.842Z,368
2023-02-24T15:36:55.821Z,372
2023-02-24T15:39:03.369Z,367
2023-02-24T15:41:09.645Z,367
2023-02-24T15:43:16.861Z,367
2023-02-24T15:45:22.868Z,369
2023-02-24T15:47:29.653Z,367
2023-02-24T15:49:38.582Z,368
2023-02-24T15:51:45.808Z,369
2023-02-24T15:53:52.789Z,367
2023-02-24T15:56:00.249Z,368
2023-02-24T15:58:09.003Z,374
2023-02-24T16:00:16.791Z,368
2023-02-24T16:02:27.617Z,369
2023-02-24T16:04:35.629Z,368
2023-02-24T16:06:44.271Z,368
2023-02-24T16:08:58.575Z,367
2023-02-24T16:11:05.052Z,369
2023-02-24T16:13:15.140Z,369
2023-02-24T16:15:22.963Z,369
2023-02-24T16:17:30.943Z,368
2023-02-24T16:19:38.743Z,368
2023-02-24T16:21:46.056Z,368
2023-02-24T16:23:57.907Z,369
2023-02-24T16:26:04.891Z,368
2023-02-24T16:28:12.831Z,364
2023-02-24T16:30:24.743Z,364
2023-02-24T16:32:35.324Z,363
2023-02-24T16:34:44.029Z,366
2023-02-24T16:36:50.711Z,361
2023-02-24T16:38:57.248Z,355
2023-02-24T16:41:04.007Z,366
2023-02-24T16:43:13.757Z,364
2023-02-24T16:45:20.151Z,365
2023-02-24T16:47:26.425Z,365
2023-02-24T16:49:33.754Z,364
2023-02-24T16:51:40.756Z,377
2023-02-24T16:53:55.453Z,367
2023-02-24T16:56:02.401Z,367
2023-02-24T16:58:09.633Z,374
2023-02-24T17:00:16.956Z,361
2023-02-24T17:02:24.770Z,360
2023-02-24T17:04:32.901Z,360
2023-02-24T17:06:41.789Z,365
2023-02-24T17:08:54.168Z,365
2023-02-24T17:11:01.931Z,366
2023-02-24T17:13:09.425Z,365
2023-02-24T17:15:17.198Z,367
2023-02-24T17:17:25.196Z,366
2023-02-24T17:19:33.984Z,367
2023-02-24T17:21:45.179Z,368
2023-02-24T17:23:53.637Z,368
2023-02-24T17:26:01.406Z,375
2023-02-24T17:28:09.725Z,376
2023-02-24T17:30:17.828Z,368
2023-02-24T17:32:31.705Z,368
2023-02-24T17:34:41.407Z,368
2023-02-24T17:36:48.600Z,377
2023-02-24T17:38:58.114Z,368
2023-02-24T17:41:05.502Z,370
2023-02-24T17:43:12.332Z,376
2023-02-24T17:45:19.306Z,376
2023-02-24T17:47:28.233Z,369
2023-02-24T17:49:39.711Z,376
2023-02-24T17:51:46.677Z,368
2023-02-24T17:53:54.029Z,368
2023-02-24T17:56:05.772Z,366
2023-02-24T17:58:18.361Z,369
2023-02-24T18:00:28.042Z,368
2023-02-24T18:02:37.034Z,373
2023-02-24T18:04:46.349Z,368
2023-02-24T18:06:54.733Z,373
2023-02-24T18:09:02.819Z,374
2023-02-24T18:11:11.692Z,377
2023-02-24T18:13:22.340Z,367
2023-02-24T18:15:30.766Z,374
2023-02-24T18:17:40.913Z,368
2023-02-24T18:19:48.183Z,365
2023-02-24T18:21:55.220Z,373
2023-02-24T18:24:06.657Z,374
2023-02-24T18:26:15.304Z,368
2023-02-24T18:28:23.759Z,374
2023-02-24T18:30:32.369Z,376
2023-02-24T18:32:41.168Z,369
2023-02-24T18:34:48.746Z,374
2023-02-24T18:36:56.490Z,374
2023-02-24T18:39:07.747Z,368
2023-02-24T18:41:16.986Z,374
2023-02-24T18:43:25.847Z,375
2023-02-24T18:45:39.446Z,375
2023-02-24T18:47:49.387Z,373
2023-02-24T18:49:57.470Z,376
2023-02-24T18:52:08.362Z,375
2023-02-24T18:54:18.042Z,375
2023-02-24T18:56:30.864Z,376
2023-02-24T18:58:39.624Z,375
2023-02-24T19:00:56.978Z,376
2023-02-24T19:03:15.117Z,373
2023-02-24T19:05:36.899Z,375
2023-02-24T19:07:47.548Z,375
2023-02-24T19:09:56.837Z,375
2023-02-24T19:12:05.196Z,376
2023-02-24T19:14:21.685Z,375
2023-02-24T19:16:32.583Z,374
2023-02-24T19:18:42.904Z,375
2023-02-24T19:20:50.350Z,375
2023-02-24T19:22:57.977Z,369
2023-02-24T19:25:07.991Z,376
2023-02-24T19:27:16.424Z,368
2023-02-24T19:29:35.069Z,367
2023-02-24T19:31:47.962Z,368
2023-02-24T19:33:57.307Z,376
2023-02-24T19:36:06.999Z,373
2023-02-24T19:38:17.553Z,376
2023-02-24T19:40:29.761Z,366
2023-02-24T19:42:38.243Z,369
2023-02-24T19:44:51.268Z,368
2023-02-24T19:47:00.653Z,368
2023-02-24T19:49:10.055Z,368
2023-02-24T19:51:21.239Z,369
2023-02-24T19:53:31.043Z,368
2023-02-24T19:55:41.241Z,372
2023-02-24T19:57:51.991Z,373
2023-02-24T20:00:02.605Z,375
2023-02-24T20:02:20.146Z,369
2023-02-24T20:04:31.439Z,369
2023-02-24T20:06:46.662Z,375
2023-02-24T20:08:58.384Z,370
2023-02-24T20:11:13.071Z,367
2023-02-24T20:13:22.064Z,367
2023-02-24T20:15:37.212Z,373
2023-02-24T20:17:48.934Z,368
2023-02-24T20:20:00.230Z,375
2023-02-24T20:22:11.552Z,373
2023-02-24T20:24:20.986Z,369
2023-02-24T20:26:40.926Z,368
2023-02-24T20:28:51.204Z,373
2023-02-24T20:30:58.561Z,367
2023-02-24T20:33:10.380Z,372
2023-02-24T20:35:22.104Z,374
2023-02-24T20:37:41.309Z,373
2023-02-24T20:39:56.685Z,369
2023-02-24T20:42:10.010Z,374
2023-02-24T20:44:23.984Z,376
2023-02-24T20:46:36.250Z,369
2023-02-24T20:48:55.957Z,369
2023-02-24T20:51:04.004Z,375
2023-02-24T20:53:12.304Z,373
2023-02-24T20:55:23.535Z,373
2023-02-24T20:57:34.641Z,368
2023-02-24T21:00:02.669Z,369
2023-02-24T21:02:12.549Z,375
2023-02-24T21:04:20.692Z,373
2023-02-24T21:06:32.382Z,373
2023-02-24T21:08:42.767Z,369
2023-02-24T21:10:50.748Z,373
2023-02-24T21:12:58.244Z,369
2023-02-24T21:15:09.748Z,370
2023-02-24T21:17:17.608Z,373
2023-02-24T21:19:24.371Z,374
2023-02-24T21:21:31.539Z,376
2023-02-24T21:23:38.781Z,376
2023-02-24T21:25:49.273Z,375
2023-02-24T21:27:58.111Z,375
2023-02-24T21:30:05.604Z,369
2023-02-24T21:32:12.780Z,374
2023-02-24T21:34:20.648Z,374
2023-02-24T21:36:28.177Z,369
2023-02-24T21:38:34.528Z,369
2023-02-24T21:40:42.813Z,368
2023-02-24T21:42:49.100Z,376
2023-02-24T21:44:56.118Z,376
2023-02-24T21:47:02.314Z,375
2023-02-24T21:49:11.118Z,375
2023-02-24T21:51:18.111Z,376
2023-02-24T21:53:26.258Z,376
2023-02-24T21:55:34.068Z,375
2023-02-24T21:57:42.669Z,375
2023-02-24T21:59:51.783Z,376
2023-02-24T22:01:59.369Z,375
2023-02-24T22:04:06.827Z,375
2023-02-24T22:06:13.104Z,375
2023-02-24T22:08:18.946Z,374
2023-02-24T22:10:24.868Z,375
2023-02-24T22:12:31.091Z,375
2023-02-24T22:14:37.322Z,375
2023-02-24T22:16:43.645Z,376
2023-02-24T22:18:50.188Z,375
2023-02-24T22:20:56.153Z,367
2023-02-24T22:23:02.509Z,376
2023-02-24T22:25:08.410Z,376
2023-02-24T22:27:14.953Z,375
2023-02-24T22:29:21.205Z,373
2023-02-24T22:31:26.776Z,376
2023-02-24T22:33:32.610Z,376
2023-02-24T22:35:38.347Z,375
2023-02-24T22:37:43.827Z,376
2023-02-24T22:39:49.334Z,369
2023-02-24T22:41:55.024Z,376
2023-02-24T22:44:00.741Z,375
2023-02-24T22:46:06.299Z,372
2023-02-24T22:48:12.417Z,376
2023-02-24T22:50:18.285Z,366
2023-02-24T22:52:23.711Z,376
2023-02-24T22:54:29.173Z,375
2023-02-24T22:56:34.734Z,369
2023-02-24T22:58:40.992Z,368
2023-02-24T23:00:46.300Z,373
2023-02-24T23:02:52.228Z,375
2023-02-24T23:04:57.671Z,368
2023-02-24T23:07:03.518Z,373
2023-02-24T23:09:09.390Z,370
2023-02-24T23:11:15.294Z,375
2023-02-24T23:13:20.875Z,373
2023-02-24T23:15:26.091Z,375
2023-02-24T23:17:31.423Z,367
2023-02-24T23:19:37.342Z,375
2023-02-24T23:21:42.924Z,365
2023-02-24T23:23:48.075Z,366
2023-02-24T23:25:53.774Z,367
2023-02-24T23:27:59.405Z,366
2023-02-24T23:30:05.065Z,369
2023-02-24T23:32:11.232Z,365
2023-02-24T23:34:16.993Z,365
2023-02-24T23:36:23.903Z,374
2023-02-24T23:38:29.982Z,369
2023-02-24T23:40:52.257Z,375
2023-02-24T23:42:57.597Z,369
2023-02-24T23:45:02.952Z,374
2023-02-24T23:47:08.273Z,376
2023-02-24T23:49:13.681Z,374
2023-02-24T23:51:18.979Z,367
2023-02-24T23:53:24.623Z,376
2023-02-24T23:55:30.086Z,374
2023-02-24T23:57:35.754Z,375
2023-02-24T23:59:41.354Z,372
